Aviation Digital Data Service (ADDS)

Output produced by METARs form (1716 UTC 24 June 2019)
found at http://www.aviationweather.gov/metar/data/
 
Forecast for: FEFF (BANGUI/M'POKO (M, CF)
Text: TAF FEFF 241100Z 2412/2518 24008KT 9999 BKN023 FEW040CB
Forecast period: 1200 UTC 24 June 2019 to 0500 UTC 25 June 2019
Forecast type: FROM: standard forecast or significant change
Winds: from the WSW (240 degrees) at 9 MPH (8 knots; 4.1 m/s)
Visibility: 6 or more miles 10+ km)
Ceiling: 2300 feet AGL
Clouds: broken clouds at 2300 feet AGL
few clouds at 4000 feet AGL
Weather: no significant weather forecast for this period
Text: TEMPO 2413/2418 VRB20KT -TSRA
Forecast period: 1300 to 1800 UTC 24 June 2019
Forecast type: TEMPORARY: The following changes expected for less than half the time period
Winds: variable direction winds at 23 MPH (20 knots; 10.3 m/s)
Visibility: missing
Ceiling: unknown
Clouds: missing
Weather: -TSRA  (light rain associated with thunderstorm(s))
Text: BECMG 2505/2507 BKN010
Forecast period: 0500 to 1800 UTC 25 June 2019
Forecast type: BECOMING: Conditions expected to become as follows by 0700 UTC 25 June 2019
Winds: from the WSW (240 degrees) at 9 MPH (8 knots; 4.1 m/s)
Visibility: 6 or more miles 10+ km)
Ceiling: 1000 feet AGL
Clouds: broken clouds at 1000 feet AGL
Weather: no significant weather forecast for this period